sensor_id;sensor_type;location;lat;lon;timestamp;P1;durP1;ratioP1;P2;durP2;ratioP2
24216;SDS011;12356;49.386;8.688;2023-09-18T00:00:55;5.80;;;2.90;;
24216;SDS011;12356;49.386;8.688;2023-09-18T00:03:26;6.47;;;2.83;;
24216;SDS011;12356;49.386;8.688;2023-09-18T00:05:58;4.88;;;2.83;;
24216;SDS011;12356;49.386;8.688;2023-09-18T00:08:28;8.13;;;2.60;;
24216;SDS011;12356;49.386;8.688;2023-09-18T00:10:59;4.32;;;3.20;;
24216;SDS011;12356;49.386;8.688;2023-09-18T00:13:30;3.72;;;2.83;;
24216;SDS011;12356;49.386;8.688;2023-09-18T00:16:01;6.55;;;2.92;;
24216;SDS011;12356;49.386;8.688;2023-09-18T00:18:32;3.53;;;3.00;;
24216;SDS011;12356;49.386;8.688;2023-09-18T00:21:03;4.00;;;2.80;;
24216;SDS011;12356;49.386;8.688;2023-09-18T00:23:34;5.45;;;2.75;;
24216;SDS011;12356;49.386;8.688;2023-09-18T00:26:05;4.35;;;2.80;;
24216;SDS011;12356;49.386;8.688;2023-09-18T00:28:35;4.38;;;3.00;;
24216;SDS011;12356;49.386;8.688;2023-09-18T00:31:06;4.53;;;2.72;;
24216;SDS011;12356;49.386;8.688;2023-09-18T00:33:37;3.47;;;2.65;;
24216;SDS011;12356;49.386;8.688;2023-09-18T00:36:08;4.75;;;2.75;;
24216;SDS011;12356;49.386;8.688;2023-09-18T00:38:39;5.03;;;3.08;;
24216;SDS011;12356;49.386;8.688;2023-09-18T00:41:09;3.90;;;2.85;;
24216;SDS011;12356;49.386;8.688;2023-09-18T00:43:40;6.68;;;3.00;;
24216;SDS011;12356;49.386;8.688;2023-09-18T00:46:10;4.78;;;3.00;;
24216;SDS011;12356;49.386;8.688;2023-09-18T00:48:41;3.78;;;2.70;;
24216;SDS011;12356;49.386;8.688;2023-09-18T00:51:12;5.43;;;3.13;;
24216;SDS011;12356;49.386;8.688;2023-09-18T00:53:43;7.97;;;2.90;;
24216;SDS011;12356;49.386;8.688;2023-09-18T00:56:15;5.13;;;2.60;;
24216;SDS011;12356;49.386;8.688;2023-09-18T00:58:47;3.25;;;2.50;;
24216;SDS011;12356;49.386;8.688;2023-09-18T01:01:18;5.38;;;2.90;;
24216;SDS011;12356;49.386;8.688;2023-09-18T01:03:52;4.75;;;2.65;;
24216;SDS011;12356;49.386;8.688;2023-09-18T01:06:24;6.82;;;3.00;;
24216;SDS011;12356;49.386;8.688;2023-09-18T01:08:58;6.70;;;2.85;;
24216;SDS011;12356;49.386;8.688;2023-09-18T01:11:36;5.13;;;2.65;;
24216;SDS011;12356;49.386;8.688;2023-09-18T01:14:35;8.20;;;3.03;;
24216;SDS011;12356;49.386;8.688;2023-09-18T01:17:12;6.32;;;2.72;;
24216;SDS011;12356;49.386;8.688;2023-09-18T01:19:46;4.00;;;2.80;;
24216;SDS011;12356;49.386;8.688;2023-09-18T01:22:18;5.57;;;2.70;;
24216;SDS011;12356;49.386;8.688;2023-09-18T01:24:49;5.10;;;2.92;;
24216;SDS011;12356;49.386;8.688;2023-09-18T01:27:20;5.63;;;2.80;;
24216;SDS011;12356;49.386;8.688;2023-09-18T01:29:50;4.03;;;2.80;;
24216;SDS011;12356;49.386;8.688;2023-09-18T01:32:21;5.28;;;2.60;;
24216;SDS011;12356;49.386;8.688;2023-09-18T01:34:56;4.85;;;2.78;;
24216;SDS011;12356;49.386;8.688;2023-09-18T01:37:29;5.07;;;2.70;;
24216;SDS011;12356;49.386;8.688;2023-09-18T01:42:36;5.30;;;2.67;;
24216;SDS011;12356;49.386;8.688;2023-09-18T01:45:07;5.57;;;2.83;;
24216;SDS011;12356;49.386;8.688;2023-09-18T01:47:38;4.13;;;2.95;;
24216;SDS011;12356;49.386;8.688;2023-09-18T01:50:08;4.40;;;2.70;;
24216;SDS011;12356;49.386;8.688;2023-09-18T01:52:39;5.22;;;2.65;;
24216;SDS011;12356;49.386;8.688;2023-09-18T01:55:10;4.82;;;2.67;;
24216;SDS011;12356;49.386;8.688;2023-09-18T01:57:41;8.00;;;2.90;;
24216;SDS011;12356;49.386;8.688;2023-09-18T02:00:12;5.17;;;2.80;;
24216;SDS011;12356;49.386;8.688;2023-09-18T02:02:44;4.53;;;2.72;;
24216;SDS011;12356;49.386;8.688;2023-09-18T02:05:14;6.15;;;2.70;;
24216;SDS011;12356;49.386;8.688;2023-09-18T02:07:45;4.68;;;2.63;;
24216;SDS011;12356;49.386;8.688;2023-09-18T02:10:15;7.15;;;2.97;;
24216;SDS011;12356;49.386;8.688;2023-09-18T02:12:46;3.83;;;2.50;;
24216;SDS011;12356;49.386;8.688;2023-09-18T02:15:17;4.28;;;2.85;;
24216;SDS011;12356;49.386;8.688;2023-09-18T02:17:47;5.90;;;2.78;;
24216;SDS011;12356;49.386;8.688;2023-09-18T02:20:18;3.88;;;2.72;;
24216;SDS011;12356;49.386;8.688;2023-09-18T02:22:49;7.93;;;2.80;;
24216;SDS011;12356;49.386;8.688;2023-09-18T02:25:19;3.67;;;2.50;;
24216;SDS011;12356;49.386;8.688;2023-09-18T02:27:50;4.72;;;2.90;;
24216;SDS011;12356;49.386;8.688;2023-09-18T02:30:21;6.07;;;2.85;;
24216;SDS011;12356;49.386;8.688;2023-09-18T02:32:52;8.02;;;2.55;;
24216;SDS011;12356;49.386;8.688;2023-09-18T02:35:22;4.15;;;2.65;;
24216;SDS011;12356;49.386;8.688;2023-09-18T02:37:53;12.70;;;3.00;;
24216;SDS011;12356;49.386;8.688;2023-09-18T02:40:23;4.43;;;2.90;;
24216;SDS011;12356;49.386;8.688;2023-09-18T02:42:54;4.75;;;2.50;;
24216;SDS011;12356;49.386;8.688;2023-09-18T02:45:24;5.07;;;2.55;;
24216;SDS011;12356;49.386;8.688;2023-09-18T02:47:55;3.85;;;2.53;;
24216;SDS011;12356;49.386;8.688;2023-09-18T02:50:25;6.30;;;2.60;;
24216;SDS011;12356;49.386;8.688;2023-09-18T02:52:56;5.10;;;2.30;;
24216;SDS011;12356;49.386;8.688;2023-09-18T02:55:26;3.17;;;2.60;;
24216;SDS011;12356;49.386;8.688;2023-09-18T02:57:57;6.05;;;2.55;;
24216;SDS011;12356;49.386;8.688;2023-09-18T03:00:29;5.80;;;2.80;;
24216;SDS011;12356;49.386;8.688;2023-09-18T03:02:59;7.10;;;2.85;;
24216;SDS011;12356;49.386;8.688;2023-09-18T03:05:31;5.07;;;2.67;;
24216;SDS011;12356;49.386;8.688;2023-09-18T03:08:02;6.97;;;2.70;;
24216;SDS011;12356;49.386;8.688;2023-09-18T03:10:37;4.45;;;2.80;;
24216;SDS011;12356;49.386;8.688;2023-09-18T03:13:11;5.55;;;3.00;;
24216;SDS011;12356;49.386;8.688;2023-09-18T03:15:46;8.52;;;3.15;;
24216;SDS011;12356;49.386;8.688;2023-09-18T03:18:17;10.50;;;2.97;;
24216;SDS011;12356;49.386;8.688;2023-09-18T03:20:48;10.13;;;2.90;;
24216;SDS011;12356;49.386;8.688;2023-09-18T03:23:18;8.15;;;3.10;;
24216;SDS011;12356;49.386;8.688;2023-09-18T03:25:49;9.40;;;3.10;;
24216;SDS011;12356;49.386;8.688;2023-09-18T03:28:19;8.90;;;3.10;;
24216;SDS011;12356;49.386;8.688;2023-09-18T03:30:50;7.75;;;3.53;;
24216;SDS011;12356;49.386;8.688;2023-09-18T03:33:20;10.65;;;3.35;;
24216;SDS011;12356;49.386;8.688;2023-09-18T03:35:51;8.65;;;3.47;;
24216;SDS011;12356;49.386;8.688;2023-09-18T03:38:24;7.95;;;3.03;;
24216;SDS011;12356;49.386;8.688;2023-09-18T03:40:55;7.65;;;3.40;;
24216;SDS011;12356;49.386;8.688;2023-09-18T03:43:25;10.13;;;3.50;;
24216;SDS011;12356;49.386;8.688;2023-09-18T03:46:03;10.00;;;3.50;;
24216;SDS011;12356;49.386;8.688;2023-09-18T03:48:37;8.77;;;3.35;;
24216;SDS011;12356;49.386;8.688;2023-09-18T03:51:07;10.68;;;3.67;;
24216;SDS011;12356;49.386;8.688;2023-09-18T03:53:38;10.48;;;3.40;;
24216;SDS011;12356;49.386;8.688;2023-09-18T03:56:08;10.52;;;3.70;;
24216;SDS011;12356;49.386;8.688;2023-09-18T03:58:39;8.73;;;3.38;;
24216;SDS011;12356;49.386;8.688;2023-09-18T04:01:10;8.95;;;3.15;;
24216;SDS011;12356;49.386;8.688;2023-09-18T04:03:44;9.00;;;3.35;;
24216;SDS011;12356;49.386;8.688;2023-09-18T04:06:15;12.18;;;4.03;;
24216;SDS011;12356;49.386;8.688;2023-09-18T04:08:45;8.98;;;3.67;;
24216;SDS011;12356;49.386;8.688;2023-09-18T04:11:16;12.68;;;3.72;;
24216;SDS011;12356;49.386;8.688;2023-09-18T04:13:47;14.15;;;4.07;;
24216;SDS011;12356;49.386;8.688;2023-09-18T04:16:17;14.98;;;4.20;;
24216;SDS011;12356;49.386;8.688;2023-09-18T04:18:48;12.75;;;4.38;;
24216;SDS011;12356;49.386;8.688;2023-09-18T04:21:19;14.50;;;4.18;;
24216;SDS011;12356;49.386;8.688;2023-09-18T04:23:51;9.68;;;4.25;;
24216;SDS011;12356;49.386;8.688;2023-09-18T04:26:27;13.70;;;4.45;;
24216;SDS011;12356;49.386;8.688;2023-09-18T04:29:00;15.77;;;4.28;;
24216;SDS011;12356;49.386;8.688;2023-09-18T04:31:31;15.93;;;4.03;;
24216;SDS011;12356;49.386;8.688;2023-09-18T04:34:02;15.13;;;4.32;;
24216;SDS011;12356;49.386;8.688;2023-09-18T04:36:33;16.73;;;4.22;;
24216;SDS011;12356;49.386;8.688;2023-09-18T04:39:04;15.65;;;3.90;;
24216;SDS011;12356;49.386;8.688;2023-09-18T04:41:35;10.38;;;3.38;;
24216;SDS011;12356;49.386;8.688;2023-09-18T04:44:05;14.32;;;3.35;;
24216;SDS011;12356;49.386;8.688;2023-09-18T04:46:37;14.90;;;3.35;;
24216;SDS011;12356;49.386;8.688;2023-09-18T04:49:07;16.83;;;3.17;;
24216;SDS011;12356;49.386;8.688;2023-09-18T04:51:40;9.38;;;2.92;;
24216;SDS011;12356;49.386;8.688;2023-09-18T04:54:11;12.68;;;3.50;;
24216;SDS011;12356;49.386;8.688;2023-09-18T04:56:42;16.55;;;3.25;;
24216;SDS011;12356;49.386;8.688;2023-09-18T04:59:12;11.77;;;3.10;;
24216;SDS011;12356;49.386;8.688;2023-09-18T05:01:44;14.70;;;3.20;;
24216;SDS011;12356;49.386;8.688;2023-09-18T05:04:15;11.25;;;3.20;;
24216;SDS011;12356;49.386;8.688;2023-09-18T05:06:46;9.55;;;2.70;;
24216;SDS011;12356;49.386;8.688;2023-09-18T05:09:16;10.93;;;2.97;;
24216;SDS011;12356;49.386;8.688;2023-09-18T05:11:47;10.02;;;2.90;;
24216;SDS011;12356;49.386;8.688;2023-09-18T05:14:19;13.15;;;3.35;;
24216;SDS011;12356;49.386;8.688;2023-09-18T05:16:49;11.45;;;2.90;;
24216;SDS011;12356;49.386;8.688;2023-09-18T05:19:20;13.13;;;3.17;;
24216;SDS011;12356;49.386;8.688;2023-09-18T05:21:51;9.77;;;2.92;;
24216;SDS011;12356;49.386;8.688;2023-09-18T05:24:22;8.73;;;2.70;;
24216;SDS011;12356;49.386;8.688;2023-09-18T05:26:57;11.10;;;3.05;;
24216;SDS011;12356;49.386;8.688;2023-09-18T05:29:27;9.50;;;3.72;;
24216;SDS011;12356;49.386;8.688;2023-09-18T05:31:58;8.55;;;2.90;;
24216;SDS011;12356;49.386;8.688;2023-09-18T05:34:28;9.77;;;2.90;;
24216;SDS011;12356;49.386;8.688;2023-09-18T05:36:59;9.00;;;3.05;;
24216;SDS011;12356;49.386;8.688;2023-09-18T05:39:30;10.32;;;2.67;;
24216;SDS011;12356;49.386;8.688;2023-09-18T05:42:01;6.85;;;2.67;;
24216;SDS011;12356;49.386;8.688;2023-09-18T05:44:32;16.67;;;3.00;;
24216;SDS011;12356;49.386;8.688;2023-09-18T05:47:03;8.52;;;2.50;;
24216;SDS011;12356;49.386;8.688;2023-09-18T05:49:34;8.25;;;2.72;;
24216;SDS011;12356;49.386;8.688;2023-09-18T05:52:06;9.33;;;2.40;;
24216;SDS011;12356;49.386;8.688;2023-09-18T05:54:36;11.38;;;2.72;;
24216;SDS011;12356;49.386;8.688;2023-09-18T05:57:07;11.38;;;2.88;;
24216;SDS011;12356;49.386;8.688;2023-09-18T06:02:09;15.40;;;3.47;;
24216;SDS011;12356;49.386;8.688;2023-09-18T06:04:39;12.95;;;3.70;;
24216;SDS011;12356;49.386;8.688;2023-09-18T06:07:11;14.77;;;3.70;;
24216;SDS011;12356;49.386;8.688;2023-09-18T06:09:43;13.73;;;3.53;;
24216;SDS011;12356;49.386;8.688;2023-09-18T06:12:13;13.05;;;3.33;;
24216;SDS011;12356;49.386;8.688;2023-09-18T06:14:44;11.85;;;3.35;;
24216;SDS011;12356;49.386;8.688;2023-09-18T06:19:47;10.90;;;3.28;;
24216;SDS011;12356;49.386;8.688;2023-09-18T06:22:18;13.27;;;3.33;;
24216;SDS011;12356;49.386;8.688;2023-09-18T06:24:48;7.55;;;3.40;;
24216;SDS011;12356;49.386;8.688;2023-09-18T06:27:19;10.68;;;3.25;;
24216;SDS011;12356;49.386;8.688;2023-09-18T06:29:49;11.80;;;4.07;;
24216;SDS011;12356;49.386;8.688;2023-09-18T06:32:20;10.18;;;3.83;;
24216;SDS011;12356;49.386;8.688;2023-09-18T06:34:51;12.35;;;4.10;;
24216;SDS011;12356;49.386;8.688;2023-09-18T06:37:22;10.07;;;3.65;;
24216;SDS011;12356;49.386;8.688;2023-09-18T06:39:52;15.13;;;4.25;;
24216;SDS011;12356;49.386;8.688;2023-09-18T06:42:23;12.77;;;3.83;;
24216;SDS011;12356;49.386;8.688;2023-09-18T06:44:54;10.80;;;3.25;;
24216;SDS011;12356;49.386;8.688;2023-09-18T06:47:25;10.25;;;3.58;;
24216;SDS011;12356;49.386;8.688;2023-09-18T06:49:56;12.35;;;3.00;;
24216;SDS011;12356;49.386;8.688;2023-09-18T06:52:27;13.60;;;3.35;;
24216;SDS011;12356;49.386;8.688;2023-09-18T06:54:59;7.03;;;2.65;;
24216;SDS011;12356;49.386;8.688;2023-09-18T06:57:29;13.73;;;2.80;;
24216;SDS011;12356;49.386;8.688;2023-09-18T07:00:00;12.15;;;2.63;;
24216;SDS011;12356;49.386;8.688;2023-09-18T07:02:31;6.93;;;2.67;;
24216;SDS011;12356;49.386;8.688;2023-09-18T07:05:01;12.30;;;2.70;;
24216;SDS011;12356;49.386;8.688;2023-09-18T07:07:32;8.50;;;2.47;;
24216;SDS011;12356;49.386;8.688;2023-09-18T07:10:03;8.10;;;2.75;;
24216;SDS011;12356;49.386;8.688;2023-09-18T07:12:34;8.93;;;2.97;;
24216;SDS011;12356;49.386;8.688;2023-09-18T07:15:05;7.72;;;2.90;;
24216;SDS011;12356;49.386;8.688;2023-09-18T07:17:36;11.85;;;3.05;;
24216;SDS011;12356;49.386;8.688;2023-09-18T07:20:06;11.95;;;2.78;;
24216;SDS011;12356;49.386;8.688;2023-09-18T07:22:45;11.10;;;2.85;;
24216;SDS011;12356;49.386;8.688;2023-09-18T07:25:20;10.85;;;3.00;;
24216;SDS011;12356;49.386;8.688;2023-09-18T07:27:50;11.15;;;2.95;;
24216;SDS011;12356;49.386;8.688;2023-09-18T07:30:21;11.32;;;3.10;;
24216;SDS011;12356;49.386;8.688;2023-09-18T07:32:55;12.30;;;3.33;;
24216;SDS011;12356;49.386;8.688;2023-09-18T07:35:28;10.50;;;3.00;;
24216;SDS011;12356;49.386;8.688;2023-09-18T07:37:59;12.35;;;3.25;;
24216;SDS011;12356;49.386;8.688;2023-09-18T07:40:29;9.07;;;3.00;;
24216;SDS011;12356;49.386;8.688;2023-09-18T07:43:00;9.90;;;3.00;;
24216;SDS011;12356;49.386;8.688;2023-09-18T07:45:31;10.45;;;3.13;;
24216;SDS011;12356;49.386;8.688;2023-09-18T07:48:01;11.75;;;2.90;;
24216;SDS011;12356;49.386;8.688;2023-09-18T07:50:32;9.20;;;2.83;;
24216;SDS011;12356;49.386;8.688;2023-09-18T07:53:03;8.43;;;2.50;;
24216;SDS011;12356;49.386;8.688;2023-09-18T07:55:34;12.02;;;2.60;;
24216;SDS011;12356;49.386;8.688;2023-09-18T07:58:04;9.27;;;2.38;;
24216;SDS011;12356;49.386;8.688;2023-09-18T08:00:35;8.10;;;2.72;;
24216;SDS011;12356;49.386;8.688;2023-09-18T08:03:06;7.00;;;2.40;;
24216;SDS011;12356;49.386;8.688;2023-09-18T08:05:36;7.60;;;2.38;;
24216;SDS011;12356;49.386;8.688;2023-09-18T08:08:07;10.57;;;2.30;;
24216;SDS011;12356;49.386;8.688;2023-09-18T08:10:37;5.25;;;2.08;;
24216;SDS011;12356;49.386;8.688;2023-09-18T08:13:08;8.50;;;2.08;;
24216;SDS011;12356;49.386;8.688;2023-09-18T08:15:39;8.23;;;2.30;;
24216;SDS011;12356;49.386;8.688;2023-09-18T08:18:10;6.70;;;1.92;;
24216;SDS011;12356;49.386;8.688;2023-09-18T08:20:41;6.25;;;2.10;;
24216;SDS011;12356;49.386;8.688;2023-09-18T08:23:12;9.13;;;2.00;;
24216;SDS011;12356;49.386;8.688;2023-09-18T08:25:43;3.50;;;1.75;;
24216;SDS011;12356;49.386;8.688;2023-09-18T08:28:13;7.93;;;1.88;;
24216;SDS011;12356;49.386;8.688;2023-09-18T08:30:45;6.75;;;1.60;;
24216;SDS011;12356;49.386;8.688;2023-09-18T08:33:17;3.70;;;1.65;;
24216;SDS011;12356;49.386;8.688;2023-09-18T08:35:47;5.95;;;1.52;;
24216;SDS011;12356;49.386;8.688;2023-09-18T08:38:19;4.53;;;1.42;;
24216;SDS011;12356;49.386;8.688;2023-09-18T08:40:50;5.85;;;1.23;;
24216;SDS011;12356;49.386;8.688;2023-09-18T08:43:23;3.78;;;1.33;;
24216;SDS011;12356;49.386;8.688;2023-09-18T08:45:55;3.58;;;1.20;;
24216;SDS011;12356;49.386;8.688;2023-09-18T08:48:31;4.88;;;1.23;;
24216;SDS011;12356;49.386;8.688;2023-09-18T08:51:05;5.00;;;1.40;;
24216;SDS011;12356;49.386;8.688;2023-09-18T08:53:37;5.22;;;1.15;;
24216;SDS011;12356;49.386;8.688;2023-09-18T08:56:08;5.55;;;1.35;;
24216;SDS011;12356;49.386;8.688;2023-09-18T08:58:39;3.15;;;1.40;;
24216;SDS011;12356;49.386;8.688;2023-09-18T09:01:12;7.35;;;1.83;;
24216;SDS011;12356;49.386;8.688;2023-09-18T09:03:43;6.05;;;1.40;;
24216;SDS011;12356;49.386;8.688;2023-09-18T09:06:16;4.70;;;1.27;;
24216;SDS011;12356;49.386;8.688;2023-09-18T09:08:47;4.47;;;1.33;;
24216;SDS011;12356;49.386;8.688;2023-09-18T09:11:17;3.92;;;1.30;;
24216;SDS011;12356;49.386;8.688;2023-09-18T09:14:07;7.70;;;1.40;;
24216;SDS011;12356;49.386;8.688;2023-09-18T09:16:41;8.30;;;1.45;;
24216;SDS011;12356;49.386;8.688;2023-09-18T09:19:18;5.45;;;1.27;;
24216;SDS011;12356;49.386;8.688;2023-09-18T09:21:57;5.32;;;1.23;;
24216;SDS011;12356;49.386;8.688;2023-09-18T09:24:41;3.33;;;1.40;;
24216;SDS011;12356;49.386;8.688;2023-09-18T09:27:13;4.87;;;1.20;;
24216;SDS011;12356;49.386;8.688;2023-09-18T09:29:57;6.25;;;1.45;;
24216;SDS011;12356;49.386;8.688;2023-09-18T09:32:31;5.80;;;1.35;;
24216;SDS011;12356;49.386;8.688;2023-09-18T09:35:03;3.33;;;1.48;;
24216;SDS011;12356;49.386;8.688;2023-09-18T09:37:37;4.78;;;1.45;;
24216;SDS011;12356;49.386;8.688;2023-09-18T09:40:08;4.57;;;1.30;;
24216;SDS011;12356;49.386;8.688;2023-09-18T09:42:44;5.85;;;1.30;;
24216;SDS011;12356;49.386;8.688;2023-09-18T09:45:16;5.45;;;1.40;;
24216;SDS011;12356;49.386;8.688;2023-09-18T09:47:47;3.83;;;1.00;;
24216;SDS011;12356;49.386;8.688;2023-09-18T09:50:18;2.78;;;1.20;;
24216;SDS011;12356;49.386;8.688;2023-09-18T09:52:49;4.07;;;1.23;;
24216;SDS011;12356;49.386;8.688;2023-09-18T09:55:31;4.65;;;1.25;;
24216;SDS011;12356;49.386;8.688;2023-09-18T09:58:03;7.05;;;1.35;;
24216;SDS011;12356;49.386;8.688;2023-09-18T10:00:45;4.68;;;1.15;;
24216;SDS011;12356;49.386;8.688;2023-09-18T10:03:20;7.70;;;1.42;;
24216;SDS011;12356;49.386;8.688;2023-09-18T10:05:51;6.45;;;1.50;;
24216;SDS011;12356;49.386;8.688;2023-09-18T10:08:25;5.95;;;1.23;;
24216;SDS011;12356;49.386;8.688;2023-09-18T10:13:32;5.60;;;1.20;;
24216;SDS011;12356;49.386;8.688;2023-09-18T10:16:23;7.22;;;1.58;;
24216;SDS011;12356;49.386;8.688;2023-09-18T10:19:12;4.05;;;1.30;;
24216;SDS011;12356;49.386;8.688;2023-09-18T10:24:54;7.20;;;1.33;;
24216;SDS011;12356;49.386;8.688;2023-09-18T10:27:30;6.68;;;1.35;;
24216;SDS011;12356;49.386;8.688;2023-09-18T10:30:03;5.38;;;1.45;;
24216;SDS011;12356;49.386;8.688;2023-09-18T10:32:38;7.93;;;1.60;;
24216;SDS011;12356;49.386;8.688;2023-09-18T10:35:10;4.10;;;1.40;;
24216;SDS011;12356;49.386;8.688;2023-09-18T10:37:42;5.55;;;1.30;;
24216;SDS011;12356;49.386;8.688;2023-09-18T10:40:15;5.60;;;1.38;;
24216;SDS011;12356;49.386;8.688;2023-09-18T10:42:47;4.45;;;1.38;;
24216;SDS011;12356;49.386;8.688;2023-09-18T10:45:20;4.35;;;1.27;;
24216;SDS011;12356;49.386;8.688;2023-09-18T10:47:51;6.43;;;1.67;;
24216;SDS011;12356;49.386;8.688;2023-09-18T10:50:23;4.72;;;1.33;;
24216;SDS011;12356;49.386;8.688;2023-09-18T10:52:57;5.57;;;1.33;;
24216;SDS011;12356;49.386;8.688;2023-09-18T10:55:29;4.57;;;1.35;;
24216;SDS011;12356;49.386;8.688;2023-09-18T10:58:00;3.97;;;1.40;;
24216;SDS011;12356;49.386;8.688;2023-09-18T11:00:31;4.57;;;1.38;;
24216;SDS011;12356;49.386;8.688;2023-09-18T11:03:10;5.40;;;1.30;;
24216;SDS011;12356;49.386;8.688;2023-09-18T11:05:46;4.55;;;1.45;;
24216;SDS011;12356;49.386;8.688;2023-09-18T11:08:28;5.15;;;1.20;;
24216;SDS011;12356;49.386;8.688;2023-09-18T11:11:01;4.30;;;1.10;;
24216;SDS011;12356;49.386;8.688;2023-09-18T11:13:43;4.32;;;1.30;;
24216;SDS011;12356;49.386;8.688;2023-09-18T11:16:16;4.18;;;1.08;;
24216;SDS011;12356;49.386;8.688;2023-09-18T11:21:31;6.13;;;1.20;;
24216;SDS011;12356;49.386;8.688;2023-09-18T11:24:06;3.33;;;0.98;;
24216;SDS011;12356;49.386;8.688;2023-09-18T11:26:41;4.32;;;1.25;;
24216;SDS011;12356;49.386;8.688;2023-09-18T11:29:15;4.47;;;1.20;;
24216;SDS011;12356;49.386;8.688;2023-09-18T11:31:50;3.95;;;1.50;;
24216;SDS011;12356;49.386;8.688;2023-09-18T11:34:24;5.10;;;1.15;;
24216;SDS011;12356;49.386;8.688;2023-09-18T11:37:01;3.08;;;1.17;;
24216;SDS011;12356;49.386;8.688;2023-09-18T11:39:48;5.72;;;1.10;;
24216;SDS011;12356;49.386;8.688;2023-09-18T11:42:20;5.07;;;1.27;;
24216;SDS011;12356;49.386;8.688;2023-09-18T11:44:56;5.13;;;1.13;;
24216;SDS011;12356;49.386;8.688;2023-09-18T11:47:28;4.38;;;1.00;;
24216;SDS011;12356;49.386;8.688;2023-09-18T11:49:59;5.28;;;1.20;;
24216;SDS011;12356;49.386;8.688;2023-09-18T11:52:30;6.28;;;1.15;;
24216;SDS011;12356;49.386;8.688;2023-09-18T11:55:01;2.05;;;0.95;;
24216;SDS011;12356;49.386;8.688;2023-09-18T11:57:36;4.53;;;1.30;;
24216;SDS011;12356;49.386;8.688;2023-09-18T12:02:48;5.63;;;1.30;;
24216;SDS011;12356;49.386;8.688;2023-09-18T12:05:19;4.32;;;1.00;;
24216;SDS011;12356;49.386;8.688;2023-09-18T12:07:50;3.60;;;1.25;;
24216;SDS011;12356;49.386;8.688;2023-09-18T12:10:21;5.50;;;1.20;;
24216;SDS011;12356;49.386;8.688;2023-09-18T12:12:51;3.17;;;1.10;;
24216;SDS011;12356;49.386;8.688;2023-09-18T12:15:22;7.22;;;1.17;;
24216;SDS011;12356;49.386;8.688;2023-09-18T12:17:54;5.77;;;1.40;;
24216;SDS011;12356;49.386;8.688;2023-09-18T12:20:25;7.50;;;1.33;;
24216;SDS011;12356;49.386;8.688;2023-09-18T12:22:55;2.67;;;0.93;;
24216;SDS011;12356;49.386;8.688;2023-09-18T12:25:27;6.07;;;1.65;;
24216;SDS011;12356;49.386;8.688;2023-09-18T12:27:57;2.17;;;1.27;;
24216;SDS011;12356;49.386;8.688;2023-09-18T12:30:30;4.97;;;1.10;;
24216;SDS011;12356;49.386;8.688;2023-09-18T12:33:03;3.47;;;0.93;;
24216;SDS011;12356;49.386;8.688;2023-09-18T12:35:34;3.40;;;1.10;;
24216;SDS011;12356;49.386;8.688;2023-09-18T12:38:26;5.47;;;1.45;;
24216;SDS011;12356;49.386;8.688;2023-09-18T12:41:01;2.80;;;0.95;;
24216;SDS011;12356;49.386;8.688;2023-09-18T12:43:37;5.82;;;1.30;;
24216;SDS011;12356;49.386;8.688;2023-09-18T12:46:12;3.22;;;1.05;;
24216;SDS011;12356;49.386;8.688;2023-09-18T12:48:43;3.72;;;1.10;;
24216;SDS011;12356;49.386;8.688;2023-09-18T12:51:16;5.20;;;1.10;;
24216;SDS011;12356;49.386;8.688;2023-09-18T12:53:59;1.98;;;1.10;;
24216;SDS011;12356;49.386;8.688;2023-09-18T12:56:42;2.40;;;1.10;;
24216;SDS011;12356;49.386;8.688;2023-09-18T12:59:13;3.85;;;1.10;;
24216;SDS011;12356;49.386;8.688;2023-09-18T13:01:47;5.25;;;1.10;;
24216;SDS011;12356;49.386;8.688;2023-09-18T13:04:18;6.00;;;1.10;;
24216;SDS011;12356;49.386;8.688;2023-09-18T13:07:02;2.30;;;1.20;;
24216;SDS011;12356;49.386;8.688;2023-09-18T13:09:36;5.25;;;1.33;;
24216;SDS011;12356;49.386;8.688;2023-09-18T13:12:07;3.20;;;1.15;;
24216;SDS011;12356;49.386;8.688;2023-09-18T13:14:57;3.85;;;1.25;;
24216;SDS011;12356;49.386;8.688;2023-09-18T13:17:41;3.60;;;1.10;;
24216;SDS011;12356;49.386;8.688;2023-09-18T13:20:15;2.78;;;0.90;;
24216;SDS011;12356;49.386;8.688;2023-09-18T13:22:50;4.45;;;1.20;;
24216;SDS011;12356;49.386;8.688;2023-09-18T13:25:22;5.90;;;1.50;;
24216;SDS011;12356;49.386;8.688;2023-09-18T13:27:54;3.50;;;1.05;;
24216;SDS011;12356;49.386;8.688;2023-09-18T13:30:25;5.47;;;1.10;;
24216;SDS011;12356;49.386;8.688;2023-09-18T13:33:03;2.75;;;1.20;;
24216;SDS011;12356;49.386;8.688;2023-09-18T13:35:39;4.20;;;0.98;;
24216;SDS011;12356;49.386;8.688;2023-09-18T13:40:42;3.08;;;1.13;;
24216;SDS011;12356;49.386;8.688;2023-09-18T13:43:15;1.85;;;1.10;;
24216;SDS011;12356;49.386;8.688;2023-09-18T13:45:46;4.63;;;1.00;;
24216;SDS011;12356;49.386;8.688;2023-09-18T13:48:16;2.88;;;1.10;;
24216;SDS011;12356;49.386;8.688;2023-09-18T13:50:48;2.78;;;0.90;;
24216;SDS011;12356;49.386;8.688;2023-09-18T13:53:19;5.47;;;1.70;;
24216;SDS011;12356;49.386;8.688;2023-09-18T13:55:49;3.50;;;1.88;;
24216;SDS011;12356;49.386;8.688;2023-09-18T13:58:20;5.10;;;2.35;;
24216;SDS011;12356;49.386;8.688;2023-09-18T14:00:50;4.13;;;1.70;;
24216;SDS011;12356;49.386;8.688;2023-09-18T14:03:21;6.70;;;1.60;;
24216;SDS011;12356;49.386;8.688;2023-09-18T14:05:53;3.00;;;1.15;;
24216;SDS011;12356;49.386;8.688;2023-09-18T14:08:24;2.90;;;1.20;;
24216;SDS011;12356;49.386;8.688;2023-09-18T14:10:54;4.97;;;1.10;;
24216;SDS011;12356;49.386;8.688;2023-09-18T14:13:25;5.13;;;1.23;;
24216;SDS011;12356;49.386;8.688;2023-09-18T14:15:55;4.07;;;1.50;;
24216;SDS011;12356;49.386;8.688;2023-09-18T14:18:26;4.10;;;1.67;;
24216;SDS011;12356;49.386;8.688;2023-09-18T14:20:57;7.78;;;1.30;;
24216;SDS011;12356;49.386;8.688;2023-09-18T14:23:28;3.17;;;1.10;;
24216;SDS011;12356;49.386;8.688;2023-09-18T14:25:58;4.30;;;1.00;;
24216;SDS011;12356;49.386;8.688;2023-09-18T14:28:31;4.93;;;1.25;;
24216;SDS011;12356;49.386;8.688;2023-09-18T14:31:03;5.45;;;1.40;;
24216;SDS011;12356;49.386;8.688;2023-09-18T14:33:34;2.38;;;1.00;;
24216;SDS011;12356;49.386;8.688;2023-09-18T14:36:06;2.22;;;0.93;;
24216;SDS011;12356;49.386;8.688;2023-09-18T14:38:37;3.20;;;0.90;;
24216;SDS011;12356;49.386;8.688;2023-09-18T14:41:08;2.28;;;1.17;;
24216;SDS011;12356;49.386;8.688;2023-09-18T14:43:39;3.03;;;1.13;;
24216;SDS011;12356;49.386;8.688;2023-09-18T14:46:10;4.10;;;1.35;;
24216;SDS011;12356;49.386;8.688;2023-09-18T14:48:40;3.55;;;1.30;;
24216;SDS011;12356;49.386;8.688;2023-09-18T14:51:11;1.88;;;1.13;;
24216;SDS011;12356;49.386;8.688;2023-09-18T14:53:42;3.20;;;1.10;;
24216;SDS011;12356;49.386;8.688;2023-09-18T14:56:12;4.28;;;1.10;;
24216;SDS011;12356;49.386;8.688;2023-09-18T14:58:43;3.83;;;1.30;;
24216;SDS011;12356;49.386;8.688;2023-09-18T15:01:13;6.13;;;1.42;;
24216;SDS011;12356;49.386;8.688;2023-09-18T15:03:44;3.70;;;1.20;;
24216;SDS011;12356;49.386;8.688;2023-09-18T15:06:15;2.90;;;1.20;;
24216;SDS011;12356;49.386;8.688;2023-09-18T15:08:46;2.40;;;1.23;;
24216;SDS011;12356;49.386;8.688;2023-09-18T15:11:18;5.28;;;1.30;;
24216;SDS011;12356;49.386;8.688;2023-09-18T15:13:49;5.55;;;1.23;;
24216;SDS011;12356;49.386;8.688;2023-09-18T15:16:19;2.80;;;1.30;;
24216;SDS011;12356;49.386;8.688;2023-09-18T15:18:50;4.78;;;1.27;;
24216;SDS011;12356;49.386;8.688;2023-09-18T15:21:20;3.72;;;1.38;;
24216;SDS011;12356;49.386;8.688;2023-09-18T15:23:51;4.72;;;1.35;;
24216;SDS011;12356;49.386;8.688;2023-09-18T15:26:22;2.80;;;1.30;;
24216;SDS011;12356;49.386;8.688;2023-09-18T15:28:52;4.40;;;1.40;;
24216;SDS011;12356;49.386;8.688;2023-09-18T15:31:23;4.95;;;1.55;;
24216;SDS011;12356;49.386;8.688;2023-09-18T15:33:54;3.65;;;1.42;;
24216;SDS011;12356;49.386;8.688;2023-09-18T15:36:25;5.25;;;1.30;;